createdAt,value
2018-08-16T00:00:05.235Z,0.00
2018-08-16T00:01:05.248Z,0.00
2018-08-16T00:02:05.259Z,0.00
2018-08-16T00:03:05.258Z,0.00
2018-08-16T00:04:05.284Z,0.00
2018-08-16T00:05:05.262Z,0.00
2018-08-16T00:06:05.337Z,0.00
2018-08-16T00:07:05.307Z,0.00
2018-08-16T00:08:05.337Z,0.00
2018-08-16T00:09:05.521Z,0.00
2018-08-16T00:10:05.351Z,0.00
2018-08-16T00:11:05.398Z,0.00
2018-08-16T00:12:05.430Z,0.00
2018-08-16T00:13:05.386Z,0.00
2018-08-16T00:14:05.392Z,0.00
2018-08-16T00:15:05.421Z,0.00
2018-08-16T00:16:05.404Z,0.00
2018-08-16T00:17:05.494Z,0.00
2018-08-16T00:18:05.508Z,0.00
2018-08-16T00:19:05.443Z,0.00
2018-08-16T00:20:05.475Z,0.00
2018-08-16T00:21:05.476Z,0.00
2018-08-16T00:22:05.489Z,0.00
2018-08-16T00:23:05.549Z,0.00
2018-08-16T00:24:05.494Z,0.00
2018-08-16T00:25:05.557Z,0.00
2018-08-16T00:26:05.554Z,0.00
2018-08-16T00:27:05.550Z,0.00
2018-08-16T00:28:05.591Z,0.00
2018-08-16T00:29:05.575Z,0.00
2018-08-16T00:30:05.713Z,0.00
2018-08-16T00:31:05.627Z,0.00
2018-08-16T00:32:05.607Z,0.00
2018-08-16T00:33:05.638Z,0.00
2018-08-16T00:34:05.628Z,0.00
2018-08-16T00:35:05.654Z,0.00
2018-08-16T00:36:05.696Z,0.00
2018-08-16T00:37:05.731Z,0.00
2018-08-16T00:38:05.669Z,0.00
2018-08-16T00:39:05.693Z,0.00
2018-08-16T00:40:05.714Z,0.00
2018-08-16T00:41:05.709Z,0.00
2018-08-16T00:42:05.760Z,0.00
2018-08-16T00:43:05.753Z,0.00
2018-08-16T00:44:05.800Z,0.00
2018-08-16T00:45:05.790Z,0.00
2018-08-16T00:46:05.782Z,0.00
2018-08-16T00:47:05.812Z,0.00
2018-08-16T00:48:05.847Z,0.00
2018-08-16T00:49:05.806Z,0.00
2018-08-16T00:50:05.817Z,0.00
2018-08-16T00:51:05.836Z,0.00
2018-08-16T00:52:05.833Z,0.00
2018-08-16T00:53:05.899Z,0.00
2018-08-16T00:54:05.937Z,0.00
2018-08-16T00:55:05.880Z,0.00
2018-08-16T00:56:05.909Z,0.00
2018-08-16T00:57:05.935Z,0.00
2018-08-16T00:58:05.929Z,0.00
2018-08-16T00:59:05.982Z,0.00
2018-08-16T01:00:06.009Z,0.00
2018-08-16T01:01:05.943Z,0.00
2018-08-16T01:02:05.968Z,0.00
2018-08-16T01:03:05.969Z,0.00
2018-08-16T01:04:05.994Z,0.00
2018-08-16T01:05:06.041Z,0.00
2018-08-16T01:06:06.038Z,0.00
2018-08-16T01:07:06.044Z,0.00
2018-08-16T01:08:06.047Z,0.00
2018-08-16T01:09:06.058Z,0.00
2018-08-16T01:10:06.107Z,0.00
2018-08-16T01:11:06.084Z,0.00
2018-08-16T01:12:06.094Z,0.00
2018-08-16T01:13:06.133Z,0.00
2018-08-16T01:14:06.108Z,0.00
2018-08-16T01:15:06.166Z,0.00
2018-08-16T01:16:06.149Z,0.00
2018-08-16T01:17:06.150Z,0.00
2018-08-16T01:18:06.172Z,0.00
2018-08-16T01:19:06.171Z,0.00
2018-08-16T01:20:06.244Z,0.00
2018-08-16T01:21:06.248Z,0.00
2018-08-16T01:22:06.201Z,0.00
2018-08-16T01:23:06.214Z,0.00
2018-08-16T01:24:06.209Z,0.00
2018-08-16T01:25:06.344Z,0.00
2018-08-16T01:26:06.271Z,0.00
2018-08-16T01:27:06.290Z,0.00
2018-08-16T01:28:06.278Z,0.00
2018-08-16T01:29:06.281Z,0.00
2018-08-16T01:30:06.287Z,0.00
2018-08-16T01:31:06.342Z,0.00
2018-08-16T01:32:06.344Z,0.00
2018-08-16T01:33:06.334Z,0.00
2018-08-16T01:34:06.335Z,0.00
2018-08-16T01:35:06.391Z,0.00
2018-08-16T01:36:06.370Z,0.00
2018-08-16T01:37:06.396Z,0.00
2018-08-16T01:38:06.420Z,0.00
2018-08-16T01:39:06.415Z,0.00
2018-08-16T01:40:06.403Z,0.00
2018-08-16T01:41:06.445Z,0.00
2018-08-16T01:42:06.429Z,0.00
2018-08-16T01:43:06.500Z,0.00
2018-08-16T01:44:06.470Z,0.00
2018-08-16T01:45:06.487Z,0.00
2018-08-16T01:46:06.492Z,0.00
2018-08-16T01:47:06.541Z,0.00
2018-08-16T01:48:06.584Z,0.00
2018-08-16T01:49:06.529Z,0.00
2018-08-16T01:50:06.533Z,0.00
2018-08-16T01:51:06.577Z,0.00
2018-08-16T01:52:06.588Z,0.00
2018-08-16T01:53:06.594Z,0.00
2018-08-16T01:54:06.592Z,0.00
2018-08-16T01:55:06.606Z,0.00
2018-08-16T01:56:06.637Z,0.00
2018-08-16T01:57:06.649Z,0.00
2018-08-16T01:58:06.646Z,0.00
2018-08-16T01:59:06.648Z,0.00
2018-08-16T02:00:06.673Z,0.00
2018-08-16T02:01:06.726Z,0.00
2018-08-16T02:02:06.673Z,0.00
2018-08-16T02:03:06.681Z,0.00
2018-08-16T02:04:06.697Z,0.00
2018-08-16T02:05:06.720Z,0.00
2018-08-16T02:06:06.730Z,0.00
2018-08-16T02:07:06.749Z,0.00
2018-08-16T02:08:06.746Z,0.00
2018-08-16T02:09:06.748Z,0.00
2018-08-16T02:10:06.776Z,0.00
2018-08-16T02:11:06.827Z,0.00
2018-08-16T02:12:06.800Z,0.00
2018-08-16T02:13:06.826Z,0.00
2018-08-16T02:14:06.820Z,0.00
2018-08-16T02:15:06.827Z,0.00
2018-08-16T02:16:06.848Z,0.00
2018-08-16T02:17:06.842Z,0.00
2018-08-16T02:18:06.932Z,0.00
2018-08-16T02:19:06.881Z,0.00
2018-08-16T02:20:06.922Z,0.00
2018-08-16T02:21:06.912Z,0.00
2018-08-16T02:22:06.905Z,0.00
2018-08-16T02:23:06.988Z,0.00
2018-08-16T02:24:06.984Z,0.00
2018-08-16T02:25:06.961Z,0.00
2018-08-16T02:26:06.941Z,0.00
2018-08-16T02:27:07.004Z,0.00
2018-08-16T02:28:06.970Z,0.00
2018-08-16T02:29:07.012Z,0.00
2018-08-16T02:30:07.005Z,0.00
2018-08-16T02:31:07.082Z,0.00
2018-08-16T02:32:07.031Z,0.00
2018-08-16T02:33:07.052Z,0.00
2018-08-16T02:34:07.091Z,0.00
2018-08-16T02:35:07.069Z,0.00
2018-08-16T02:36:07.153Z,0.00
2018-08-16T02:37:07.098Z,0.00
2018-08-16T02:38:07.149Z,0.00
2018-08-16T02:39:07.107Z,0.00
2018-08-16T02:40:07.147Z,0.00
2018-08-16T02:41:07.158Z,0.00
2018-08-16T02:42:07.150Z,0.00
2018-08-16T02:43:07.205Z,0.00
2018-08-16T02:44:07.169Z,0.00
2018-08-16T02:45:07.174Z,0.00
2018-08-16T02:46:07.196Z,0.00
2018-08-16T02:47:07.185Z,0.00
2018-08-16T02:48:07.270Z,0.00
2018-08-16T02:49:07.219Z,0.00
2018-08-16T02:50:07.243Z,0.00
2018-08-16T02:51:07.255Z,0.00
2018-08-16T02:52:07.266Z,0.00
2018-08-16T02:53:07.305Z,0.00
2018-08-16T02:54:07.296Z,0.00
2018-08-16T02:55:07.344Z,0.00
2018-08-16T02:56:07.329Z,0.00
2018-08-16T02:57:07.337Z,0.00
2018-08-16T02:58:07.346Z,0.00
2018-08-16T02:59:07.347Z,0.00
2018-08-16T03:00:07.406Z,0.00
2018-08-16T03:01:07.359Z,0.00
2018-08-16T03:02:07.363Z,0.00
2018-08-16T03:03:07.398Z,0.00
2018-08-16T03:04:07.396Z,0.00
2018-08-16T03:05:07.449Z,0.00
2018-08-16T03:06:07.480Z,0.00
2018-08-16T03:07:07.480Z,0.00
2018-08-16T03:08:07.452Z,0.00
2018-08-16T03:09:07.449Z,0.00
2018-08-16T03:10:07.478Z,0.00
2018-08-16T03:11:07.507Z,0.00
2018-08-16T03:12:07.524Z,0.00
2018-08-16T03:13:15.696Z,0.00
2018-08-16T03:14:07.516Z,0.00
2018-08-16T03:15:07.515Z,0.00
2018-08-16T03:16:07.565Z,4.00
2018-08-16T03:17:07.541Z,4.00
2018-08-16T03:18:07.584Z,4.00
2018-08-16T03:19:07.569Z,0.00
2018-08-16T03:20:07.601Z,4.00
2018-08-16T03:21:07.657Z,4.00
2018-08-16T03:22:07.627Z,8.00
2018-08-16T03:23:07.681Z,4.00
2018-08-16T03:24:07.647Z,8.00
2018-08-16T03:25:07.644Z,8.00
2018-08-16T03:26:07.659Z,8.00
2018-08-16T03:27:07.701Z,12.00
2018-08-16T03:28:07.678Z,12.00
2018-08-16T03:29:07.711Z,12.00
2018-08-16T03:30:07.708Z,16.00
2018-08-16T03:31:07.718Z,20.00
2018-08-16T03:32:07.748Z,16.00
2018-08-16T03:33:07.790Z,20.00
2018-08-16T03:34:07.732Z,24.00
2018-08-16T03:35:07.761Z,28.00
2018-08-16T03:36:07.774Z,32.00
2018-08-16T03:37:07.779Z,36.00
2018-08-16T03:38:07.818Z,36.00
2018-08-16T03:39:07.800Z,44.00
2018-08-16T03:40:07.835Z,52.00
2018-08-16T03:41:07.849Z,56.00
2018-08-16T03:42:07.867Z,64.00
2018-08-16T03:43:07.909Z,68.00
2018-08-16T03:44:07.928Z,76.00
2018-08-16T03:45:07.889Z,88.00
2018-08-16T03:46:07.895Z,92.00
2018-08-16T03:47:07.911Z,104.00
2018-08-16T03:48:07.938Z,112.00
2018-08-16T03:49:07.963Z,128.00
2018-08-16T03:50:07.919Z,140.00
2018-08-16T03:51:07.971Z,156.00
2018-08-16T03:52:07.981Z,168.00
2018-08-16T03:53:07.991Z,184.00
2018-08-16T03:54:08.043Z,200.00
2018-08-16T03:55:08.022Z,220.00
2018-08-16T03:56:08.012Z,236.00
2018-08-16T03:57:08.023Z,256.00
2018-08-16T03:58:08.020Z,276.00
2018-08-16T03:59:08.074Z,300.00
2018-08-16T04:00:08.069Z,324.00
2018-08-16T04:01:08.060Z,344.00
2018-08-16T04:02:08.095Z,372.00
2018-08-16T04:03:08.112Z,396.00
2018-08-16T04:04:08.118Z,424.00
2018-08-16T04:05:08.113Z,452.00
2018-08-16T04:06:08.116Z,480.00
2018-08-16T04:07:08.121Z,512.00
2018-08-16T04:08:08.206Z,544.00
2018-08-16T04:09:08.153Z,572.00
2018-08-16T04:10:08.203Z,604.00
2018-08-16T04:11:08.170Z,636.00
2018-08-16T04:12:08.193Z,668.00
2018-08-16T04:13:08.227Z,700.00
2018-08-16T04:14:08.246Z,736.00
2018-08-16T04:15:08.248Z,772.00
2018-08-16T04:16:08.259Z,808.00
2018-08-16T04:17:08.245Z,848.00
2018-08-16T04:18:08.257Z,892.00
2018-08-16T04:19:08.260Z,944.00
2018-08-16T04:20:08.338Z,992.00
2018-08-16T04:21:08.353Z,1036.00
2018-08-16T04:22:08.303Z,1084.00
2018-08-16T04:23:08.353Z,1136.00
2018-08-16T04:24:08.369Z,1180.00
2018-08-16T04:25:08.348Z,1228.00
2018-08-16T04:26:08.388Z,1272.00
2018-08-16T04:27:08.394Z,1316.00
2018-08-16T04:28:08.383Z,1364.00
2018-08-16T04:29:08.411Z,1412.00
2018-08-16T04:30:08.416Z,1460.00
2018-08-16T04:31:08.402Z,1516.00
2018-08-16T04:32:08.437Z,1572.00
2018-08-16T04:33:08.441Z,1620.00
2018-08-16T04:34:08.443Z,1668.00
2018-08-16T04:35:08.554Z,1712.00
2018-08-16T04:36:08.584Z,1760.00
2018-08-16T04:37:08.491Z,1808.00
2018-08-16T04:38:08.562Z,1864.00
2018-08-16T04:39:08.510Z,1924.00
2018-08-16T04:40:08.516Z,1980.00
2018-08-16T04:41:08.534Z,2032.00
2018-08-16T04:42:08.677Z,2096.00
2018-08-16T04:43:08.603Z,2156.00
2018-08-16T04:44:08.639Z,2220.00
2018-08-16T04:45:08.630Z,2288.00
2018-08-16T04:46:08.637Z,2360.00
2018-08-16T04:47:08.597Z,2432.00
2018-08-16T04:48:08.660Z,2500.00
2018-08-16T04:49:08.627Z,2576.00
2018-08-16T04:50:08.652Z,2656.00
2018-08-16T04:51:08.673Z,2732.00
2018-08-16T04:52:08.680Z,2808.00
2018-08-16T04:53:08.683Z,2884.00
2018-08-16T04:54:08.681Z,2964.00
2018-08-16T04:55:08.670Z,3052.00
2018-08-16T04:56:08.784Z,3132.00
2018-08-16T04:57:08.717Z,3204.00
2018-08-16T04:58:08.777Z,3272.00
2018-08-16T04:59:08.727Z,3336.00
2018-08-16T05:00:08.766Z,3388.00
2018-08-16T05:01:08.753Z,3416.00
2018-08-16T05:02:08.781Z,3456.00
2018-08-16T05:03:08.833Z,3488.00
2018-08-16T05:04:08.800Z,3544.00
2018-08-16T05:05:08.821Z,3592.00
2018-08-16T05:06:08.834Z,3640.00
2018-08-16T05:07:08.852Z,3700.00
2018-08-16T05:08:08.893Z,3772.00
2018-08-16T05:09:08.866Z,3864.00
2018-08-16T05:10:08.920Z,3960.00
2018-08-16T05:11:08.943Z,4016.00
2018-08-16T05:12:08.919Z,4044.00
2018-08-16T05:13:08.927Z,4084.00
2018-08-16T05:14:08.943Z,4148.00
2018-08-16T05:15:08.996Z,4196.00
2018-08-16T05:16:08.986Z,4256.00
2018-08-16T05:17:08.984Z,4288.00
2018-08-16T05:18:08.958Z,4304.00
2018-08-16T05:19:09.080Z,4352.00
2018-08-16T05:20:09.024Z,4396.00
2018-08-16T05:21:09.013Z,4420.00
2018-08-16T05:22:09.034Z,4484.00
2018-08-16T05:23:09.114Z,4540.00
2018-08-16T05:24:09.065Z,4600.00
2018-08-16T05:25:09.130Z,3224.00
2018-08-16T05:26:09.070Z,4604.00
2018-08-16T05:27:09.109Z,3316.00
2018-08-16T05:28:09.114Z,3512.00
2018-08-16T05:29:09.115Z,4772.00
2018-08-16T05:30:09.108Z,3640.00
2018-08-16T05:31:09.185Z,4940.00
2018-08-16T05:32:09.154Z,4980.00
2018-08-16T05:33:09.187Z,5032.00
2018-08-16T05:34:09.182Z,5056.00
2018-08-16T05:35:09.207Z,5080.00
2018-08-16T05:36:09.201Z,5140.00
2018-08-16T05:37:09.200Z,5220.00
2018-08-16T05:38:09.230Z,5332.00
2018-08-16T05:39:09.300Z,5436.00
2018-08-16T05:40:09.264Z,5508.00
2018-08-16T05:41:09.278Z,5584.00
2018-08-16T05:42:09.280Z,5636.00
2018-08-16T05:43:09.382Z,5664.00
2018-08-16T05:44:09.293Z,5732.00
2018-08-16T05:45:09.402Z,5732.00
2018-08-16T05:46:09.341Z,5740.00
2018-08-16T05:47:09.334Z,5764.00
2018-08-16T05:48:09.382Z,5776.00
2018-08-16T05:49:09.382Z,5808.00
2018-08-16T05:50:09.422Z,5876.00
2018-08-16T05:51:09.427Z,5952.00
2018-08-16T05:52:09.420Z,5992.00
2018-08-16T05:53:09.485Z,6012.00
2018-08-16T05:54:09.488Z,6016.00
2018-08-16T05:55:09.465Z,6020.00
2018-08-16T05:56:09.491Z,6064.00
2018-08-16T05:57:09.495Z,6072.00
2018-08-16T05:58:09.544Z,6032.00
2018-08-16T05:59:09.504Z,6044.00
2018-08-16T06:00:09.569Z,6140.00
2018-08-16T06:01:09.539Z,6252.00
2018-08-16T06:02:09.550Z,6292.00
2018-08-16T06:03:09.653Z,6300.00
2018-08-16T06:04:09.688Z,6284.00
2018-08-16T06:05:09.594Z,6284.00
2018-08-16T06:06:09.612Z,6316.00
2018-08-16T06:07:09.598Z,6360.00
2018-08-16T06:08:09.633Z,6412.00
2018-08-16T06:09:09.669Z,6436.00
2018-08-16T06:10:09.679Z,6416.00
2018-08-16T06:11:09.682Z,6372.00
2018-08-16T06:12:09.749Z,6360.00
2018-08-16T06:13:09.720Z,6364.00
2018-08-16T06:14:09.776Z,6360.00
2018-08-16T06:15:09.813Z,6348.00
2018-08-16T06:16:09.743Z,6332.00
2018-08-16T06:17:09.743Z,6328.00
2018-08-16T06:18:09.757Z,6316.00
2018-08-16T06:19:09.793Z,6320.00
2018-08-16T06:20:09.825Z,6316.00
2018-08-16T06:21:09.796Z,6328.00
2018-08-16T06:22:09.857Z,6328.00
2018-08-16T06:23:09.867Z,6300.00
2018-08-16T06:24:09.955Z,6276.00
2018-08-16T06:25:09.877Z,6240.00
2018-08-16T06:26:09.997Z,6180.00
2018-08-16T06:27:09.899Z,6152.00
2018-08-16T06:28:09.922Z,6120.00
2018-08-16T06:29:09.942Z,6076.00
2018-08-16T06:30:09.971Z,6048.00
2018-08-16T06:31:10.020Z,6004.00
2018-08-16T06:32:10.059Z,5960.00
2018-08-16T06:33:09.967Z,5908.00
2018-08-16T06:34:10.015Z,5884.00
2018-08-16T06:35:09.997Z,5856.00
2018-08-16T06:36:10.013Z,5828.00
2018-08-16T06:37:10.093Z,5804.00
2018-08-16T06:38:10.033Z,5744.00
2018-08-16T06:39:10.067Z,5696.00
2018-08-16T06:40:10.083Z,5652.00
2018-08-16T06:41:10.111Z,5596.00
2018-08-16T06:42:10.163Z,5516.00
2018-08-16T06:43:10.165Z,5420.00
2018-08-16T06:44:10.149Z,5288.00
2018-08-16T06:45:10.134Z,5096.00
2018-08-16T06:46:10.272Z,4872.00
2018-08-16T06:47:10.186Z,4652.00
2018-08-16T06:48:10.195Z,4456.00
2018-08-16T06:49:10.266Z,4304.00
2018-08-16T06:50:10.229Z,4232.00
2018-08-16T06:51:10.265Z,4216.00
2018-08-16T06:52:10.269Z,4208.00
2018-08-16T06:53:10.274Z,4208.00
2018-08-16T06:54:10.304Z,4204.00
2018-08-16T06:55:10.291Z,4196.00
2018-08-16T06:56:10.317Z,4184.00
2018-08-16T06:57:10.338Z,4172.00
2018-08-16T06:58:10.408Z,4156.00
2018-08-16T06:59:10.386Z,4144.00
2018-08-16T07:00:10.431Z,4132.00
2018-08-16T07:01:10.398Z,4116.00
2018-08-16T07:02:10.407Z,4104.00
2018-08-16T07:03:10.406Z,4088.00
2018-08-16T07:04:10.487Z,4076.00
2018-08-16T07:05:10.506Z,4064.00
2018-08-16T07:06:10.496Z,4052.00
2018-08-16T07:07:10.468Z,4032.00
2018-08-16T07:08:10.505Z,4020.00
2018-08-16T07:09:10.973Z,4008.00
2018-08-16T07:10:10.521Z,3996.00
2018-08-16T07:11:10.529Z,4000.00
2018-08-16T07:12:10.687Z,3984.00
2018-08-16T07:13:10.550Z,3976.00
2018-08-16T07:14:10.590Z,3976.00
2018-08-16T07:15:10.663Z,3968.00
2018-08-16T07:16:10.649Z,3960.00
2018-08-16T07:17:10.614Z,3956.00
2018-08-16T07:18:10.626Z,3956.00
2018-08-16T07:19:10.687Z,3948.00
2018-08-16T07:20:10.691Z,3940.00
2018-08-16T07:21:10.689Z,3928.00
2018-08-16T07:22:10.738Z,3912.00
2018-08-16T07:23:10.706Z,3900.00
2018-08-16T07:24:10.722Z,3892.00
2018-08-16T07:25:10.766Z,3880.00
2018-08-16T07:26:10.766Z,3872.00
2018-08-16T07:27:10.809Z,3864.00
2018-08-16T07:28:10.785Z,3856.00
2018-08-16T07:29:10.847Z,3848.00
2018-08-16T07:30:10.864Z,3844.00
2018-08-16T07:31:10.838Z,3840.00
2018-08-16T07:32:10.852Z,3836.00
2018-08-16T07:33:10.842Z,3828.00
2018-08-16T07:34:10.884Z,3824.00
2018-08-16T07:35:10.906Z,3816.00
2018-08-16T07:36:10.897Z,3820.00
2018-08-16T07:37:10.938Z,3812.00
2018-08-16T07:38:10.937Z,3808.00
2018-08-16T07:39:10.914Z,3800.00
2018-08-16T07:40:10.962Z,3804.00
2018-08-16T07:41:10.969Z,3800.00
2018-08-16T07:42:10.995Z,3800.00
2018-08-16T07:43:11.000Z,3800.00
2018-08-16T07:44:11.076Z,3804.00
2018-08-16T07:45:11.063Z,3804.00
2018-08-16T07:46:11.101Z,3808.00
2018-08-16T07:47:11.121Z,3800.00
2018-08-16T07:48:11.055Z,3800.00
2018-08-16T07:49:11.089Z,3788.00
2018-08-16T07:50:11.098Z,3792.00
2018-08-16T07:51:11.193Z,3784.00
2018-08-16T07:52:11.202Z,3788.00
2018-08-16T07:53:11.127Z,3788.00
2018-08-16T07:54:11.126Z,3776.00
2018-08-16T07:55:11.146Z,3772.00
2018-08-16T07:56:11.165Z,3764.00
2018-08-16T07:57:11.209Z,3736.00
2018-08-16T07:58:11.193Z,3732.00
2018-08-16T07:59:11.253Z,3728.00
2018-08-16T08:00:11.226Z,3728.00
2018-08-16T08:01:11.245Z,3732.00
2018-08-16T08:02:11.256Z,3732.00
2018-08-16T08:03:11.257Z,3724.00
2018-08-16T08:04:11.329Z,3724.00
2018-08-16T08:05:11.341Z,3720.00
2018-08-16T08:06:11.299Z,3720.00
2018-08-16T08:07:11.357Z,3720.00
2018-08-16T08:08:11.325Z,3724.00
2018-08-16T08:09:11.476Z,3720.00
2018-08-16T08:10:11.412Z,3724.00
2018-08-16T08:11:11.360Z,3716.00
2018-08-16T08:12:11.397Z,3720.00
2018-08-16T08:13:11.413Z,3720.00
2018-08-16T08:14:11.412Z,3720.00
2018-08-16T08:15:11.489Z,3712.00
2018-08-16T08:16:11.436Z,3708.00
2018-08-16T08:17:11.464Z,3688.00
2018-08-16T08:18:11.481Z,3684.00
2018-08-16T08:19:11.575Z,3676.00
2018-08-16T08:20:11.480Z,3676.00
2018-08-16T08:21:11.500Z,3684.00
2018-08-16T08:22:11.528Z,3688.00
2018-08-16T08:23:11.532Z,3692.00
2018-08-16T08:24:11.560Z,3676.00
2018-08-16T08:25:11.591Z,3672.00
2018-08-16T08:26:11.627Z,3660.00
2018-08-16T08:27:11.588Z,3664.00
2018-08-16T08:28:11.600Z,3664.00
2018-08-16T08:29:11.659Z,3664.00
2018-08-16T08:30:11.645Z,3672.00
2018-08-16T08:31:11.697Z,3672.00
2018-08-16T08:32:11.727Z,3664.00
2018-08-16T08:33:11.688Z,3644.00
2018-08-16T08:34:11.697Z,3632.00
2018-08-16T08:35:11.726Z,3624.00
2018-08-16T08:36:11.816Z,3628.00
2018-08-16T08:37:11.732Z,3632.00
2018-08-16T08:38:11.762Z,3628.00
2018-08-16T08:39:11.780Z,3616.00
2018-08-16T08:40:11.794Z,3608.00
2018-08-16T08:41:11.845Z,3600.00
2018-08-16T08:42:11.802Z,3600.00
2018-08-16T08:43:11.866Z,3604.00
2018-08-16T08:44:11.810Z,3604.00
2018-08-16T08:45:11.864Z,3612.00
2018-08-16T08:46:11.877Z,3600.00
2018-08-16T08:47:11.858Z,3600.00
2018-08-16T08:48:11.924Z,3596.00
2018-08-16T08:49:11.935Z,3588.00
2018-08-16T08:50:11.947Z,3584.00
2018-08-16T08:51:11.915Z,3572.00
2018-08-16T08:52:11.969Z,3552.00
2018-08-16T08:53:11.943Z,3540.00
2018-08-16T08:54:12.022Z,3536.00
2018-08-16T08:55:11.999Z,3536.00
2018-08-16T08:56:12.004Z,3540.00
2018-08-16T08:57:12.013Z,3552.00
2018-08-16T08:58:12.028Z,3544.00
2018-08-16T08:59:12.123Z,3532.00
2018-08-16T09:00:12.122Z,3496.00
2018-08-16T09:01:12.067Z,3484.00
2018-08-16T09:02:12.080Z,3480.00
2018-08-16T09:03:12.106Z,3476.00
2018-08-16T09:04:12.089Z,3464.00
2018-08-16T09:05:12.266Z,3464.00
2018-08-16T09:06:12.149Z,3472.00
2018-08-16T09:07:12.170Z,3476.00
2018-08-16T09:08:12.200Z,3468.00
2018-08-16T09:09:12.194Z,3468.00
2018-08-16T09:10:12.237Z,3460.00
2018-08-16T09:11:12.198Z,3452.00
2018-08-16T09:12:12.203Z,3452.00
2018-08-16T09:13:12.211Z,3444.00
2018-08-16T09:14:12.272Z,3428.00
2018-08-16T09:15:12.357Z,3400.00
2018-08-16T09:16:12.339Z,3396.00
2018-08-16T09:17:12.292Z,3388.00
2018-08-16T09:18:12.311Z,3400.00
2018-08-16T09:19:12.359Z,3412.00
2018-08-16T09:20:12.333Z,3424.00
2018-08-16T09:21:12.632Z,3436.00
2018-08-16T09:22:12.367Z,3460.00
2018-08-16T09:23:12.376Z,3464.00
2018-08-16T09:24:12.528Z,3460.00
2018-08-16T09:25:12.393Z,3472.00
2018-08-16T09:26:12.407Z,3480.00
2018-08-16T09:27:12.480Z,3476.00
2018-08-16T09:28:12.461Z,3472.00
2018-08-16T09:29:12.470Z,3456.00
2018-08-16T09:30:12.482Z,3448.00
2018-08-16T09:31:12.519Z,3448.00
2018-08-16T09:32:12.513Z,3440.00
2018-08-16T09:33:12.539Z,3448.00
2018-08-16T09:34:12.529Z,3448.00
2018-08-16T09:35:12.587Z,3440.00
2018-08-16T09:36:12.624Z,3432.00
2018-08-16T09:37:12.615Z,3428.00
2018-08-16T09:38:12.582Z,3424.00
2018-08-16T09:39:12.615Z,3420.00
2018-08-16T09:40:12.595Z,3408.00
2018-08-16T09:41:12.671Z,3392.00
2018-08-16T09:42:12.627Z,3380.00
2018-08-16T09:43:12.661Z,3376.00
2018-08-16T09:44:12.672Z,3380.00
2018-08-16T09:45:12.734Z,3388.00
2018-08-16T09:46:12.744Z,3404.00
2018-08-16T09:47:12.702Z,3412.00
2018-08-16T09:48:12.728Z,3416.00
2018-08-16T09:49:12.724Z,3412.00
2018-08-16T09:50:12.770Z,3420.00
2018-08-16T09:51:12.837Z,3420.00
2018-08-16T09:52:12.795Z,3420.00
2018-08-16T09:53:12.811Z,3424.00
2018-08-16T09:54:12.794Z,3432.00
2018-08-16T09:55:12.822Z,3436.00
2018-08-16T09:56:12.829Z,3428.00
2018-08-16T09:57:12.829Z,3424.00
2018-08-16T09:58:12.886Z,3408.00
2018-08-16T09:59:12.874Z,3392.00
2018-08-16T10:00:12.902Z,3368.00
2018-08-16T10:01:12.907Z,3356.00
2018-08-16T10:02:13.091Z,3364.00
2018-08-16T10:03:12.970Z,3364.00
2018-08-16T10:04:12.988Z,3368.00
2018-08-16T10:05:12.992Z,3376.00
2018-08-16T10:06:12.970Z,3384.00
2018-08-16T10:07:12.991Z,3396.00
2018-08-16T10:08:12.995Z,3400.00
2018-08-16T10:09:13.000Z,3408.00
2018-08-16T10:10:13.115Z,3424.00
2018-08-16T10:11:13.076Z,3416.00
2018-08-16T10:12:13.079Z,3424.00
2018-08-16T10:13:13.088Z,3420.00
2018-08-16T10:14:13.108Z,3436.00
2018-08-16T10:15:13.144Z,3444.00
2018-08-16T10:16:13.116Z,3424.00
2018-08-16T10:17:13.119Z,3408.00
2018-08-16T10:18:13.214Z,3400.00
2018-08-16T10:19:13.148Z,3400.00
2018-08-16T10:20:13.222Z,3376.00
2018-08-16T10:21:13.191Z,3348.00
2018-08-16T10:22:13.197Z,3340.00
2018-08-16T10:23:13.247Z,3336.00
2018-08-16T10:24:13.240Z,3324.00
2018-08-16T10:25:13.277Z,3320.00
2018-08-16T10:26:13.287Z,3320.00
2018-08-16T10:27:13.346Z,3320.00
2018-08-16T10:28:13.289Z,3308.00
2018-08-16T10:29:13.293Z,3300.00
2018-08-16T10:30:13.314Z,3292.00
2018-08-16T10:31:13.310Z,3288.00
2018-08-16T10:32:13.412Z,3288.00
2018-08-16T10:33:13.376Z,3276.00
2018-08-16T10:34:13.383Z,3256.00
2018-08-16T10:35:13.383Z,3248.00
2018-08-16T10:36:13.441Z,3248.00
2018-08-16T10:37:13.557Z,3224.00
2018-08-16T10:38:13.423Z,3212.00
2018-08-16T10:39:13.449Z,3220.00
2018-08-16T10:40:13.479Z,3228.00
2018-08-16T10:41:13.452Z,3232.00
2018-08-16T10:42:13.506Z,3236.00
2018-08-16T10:43:13.512Z,3220.00
2018-08-16T10:44:13.707Z,3216.00
2018-08-16T10:45:13.515Z,3208.00
2018-08-16T10:46:13.574Z,3204.00
2018-08-16T10:47:13.566Z,3216.00
2018-08-16T10:48:13.571Z,3224.00
2018-08-16T10:49:13.595Z,3236.00
2018-08-16T10:50:13.643Z,3240.00
2018-08-16T10:51:13.665Z,3244.00
2018-08-16T10:52:13.643Z,3240.00
2018-08-16T10:53:13.634Z,3236.00
2018-08-16T10:54:13.659Z,3240.00
2018-08-16T10:55:13.702Z,3240.00
2018-08-16T10:56:13.674Z,3244.00
2018-08-16T10:57:13.754Z,3240.00
2018-08-16T10:58:13.702Z,3236.00
2018-08-16T10:59:13.751Z,3220.00
2018-08-16T11:00:13.758Z,3204.00
2018-08-16T11:01:13.817Z,3192.00
2018-08-16T11:02:13.821Z,3180.00
2018-08-16T11:03:13.832Z,3160.00
2018-08-16T11:04:13.803Z,3152.00
2018-08-16T11:05:13.813Z,3136.00
2018-08-16T11:06:13.872Z,3144.00
2018-08-16T11:07:13.844Z,3128.00
2018-08-16T11:08:13.903Z,3116.00
2018-08-16T11:09:13.913Z,3120.00
2018-08-16T11:10:13.968Z,3100.00
2018-08-16T11:11:13.926Z,3108.00
2018-08-16T11:12:13.928Z,3112.00
2018-08-16T11:13:13.941Z,3112.00
2018-08-16T11:14:13.997Z,3108.00
2018-08-16T11:15:13.954Z,3124.00
2018-08-16T11:16:13.990Z,3108.00
2018-08-16T11:17:14.027Z,3112.00
2018-08-16T11:18:14.015Z,3108.00
2018-08-16T11:19:14.082Z,3104.00
2018-08-16T11:20:14.030Z,3108.00
2018-08-16T11:21:14.057Z,3128.00
2018-08-16T11:22:14.068Z,3152.00
2018-08-16T11:23:14.072Z,3156.00
2018-08-16T11:24:14.122Z,3152.00
2018-08-16T11:25:14.096Z,3156.00
2018-08-16T11:26:14.115Z,3152.00
2018-08-16T11:27:14.138Z,3136.00
2018-08-16T11:28:14.152Z,3104.00
2018-08-16T11:29:14.195Z,3088.00
2018-08-16T11:30:14.204Z,3068.00
2018-08-16T11:31:14.232Z,3044.00
2018-08-16T11:32:14.203Z,3040.00
2018-08-16T11:33:14.234Z,3044.00
2018-08-16T11:34:14.247Z,3048.00
2018-08-16T11:35:14.328Z,3068.00
2018-08-16T11:36:14.299Z,3072.00
2018-08-16T11:37:14.322Z,3088.00
2018-08-16T11:38:14.333Z,3104.00
2018-08-16T11:39:14.308Z,3104.00
2018-08-16T11:40:14.338Z,3100.00
2018-08-16T11:41:14.341Z,3120.00
2018-08-16T11:42:14.389Z,3120.00
2018-08-16T11:43:14.480Z,3148.00
2018-08-16T11:44:14.371Z,3148.00
2018-08-16T11:45:14.378Z,3120.00
2018-08-16T11:46:14.420Z,3120.00
2018-08-16T11:47:14.438Z,3108.00
2018-08-16T11:48:14.455Z,3084.00
2018-08-16T11:49:14.484Z,3064.00
2018-08-16T11:50:14.458Z,3052.00
2018-08-16T11:51:14.507Z,3048.00
2018-08-16T11:52:14.498Z,3060.00
2018-08-16T11:53:14.504Z,3068.00
2018-08-16T11:54:14.586Z,3072.00
2018-08-16T11:55:14.594Z,3076.00
2018-08-16T11:56:14.543Z,3104.00
2018-08-16T11:57:14.563Z,3112.00
2018-08-16T11:58:14.619Z,3108.00
2018-08-16T11:59:14.609Z,3112.00
2018-08-16T12:00:15.080Z,3112.00
2018-08-16T12:01:14.667Z,3116.00
2018-08-16T12:02:14.713Z,3132.00
2018-08-16T12:03:14.704Z,3140.00
2018-08-16T12:04:14.677Z,3148.00
2018-08-16T12:05:14.703Z,3128.00
2018-08-16T12:06:14.784Z,3112.00
2018-08-16T12:07:14.792Z,3116.00
2018-08-16T12:08:14.719Z,3140.00
2018-08-16T12:09:14.745Z,3156.00
2018-08-16T12:10:14.740Z,3168.00
2018-08-16T12:11:14.796Z,3164.00
2018-08-16T12:12:14.814Z,3160.00
2018-08-16T12:13:14.873Z,3152.00
2018-08-16T12:14:14.824Z,3144.00
2018-08-16T12:15:14.908Z,3140.00
2018-08-16T12:16:14.839Z,3148.00
2018-08-16T12:17:14.910Z,3132.00
2018-08-16T12:18:14.897Z,3136.00
2018-08-16T12:19:14.892Z,3140.00
2018-08-16T12:20:14.909Z,3152.00
2018-08-16T12:21:14.918Z,3160.00
2018-08-16T12:22:14.949Z,3176.00
2018-08-16T12:23:14.994Z,3188.00
2018-08-16T12:24:15.026Z,3208.00
2018-08-16T12:25:14.958Z,3208.00
2018-08-16T12:26:14.997Z,3204.00